createdAt,value
2023-04-13T00:01:12.399Z,40.10
2023-04-13T00:03:42.786Z,39.63
2023-04-13T00:06:12.124Z,38.67
2023-04-13T00:08:43.852Z,38.92
2023-04-13T00:11:14.537Z,39.40
2023-04-13T00:13:43.933Z,39.08
2023-04-13T00:16:14.784Z,39.72
2023-04-13T00:18:44.271Z,39.88
2023-04-13T00:21:13.654Z,38.75
2023-04-13T00:23:42.949Z,37.95
2023-04-13T00:26:12.213Z,37.70
2023-04-13T00:28:42.058Z,37.65
2023-04-13T00:31:11.852Z,38.97
2023-04-13T00:33:42.529Z,38.40
2023-04-13T00:36:11.920Z,37.30
2023-04-13T00:38:45.924Z,37.10
2023-04-13T00:41:15.289Z,37.45
2023-04-13T00:43:45.894Z,40.08
2023-04-13T00:46:17.321Z,38.60
2023-04-13T00:48:49.358Z,37.30
2023-04-13T00:51:19.965Z,46.38
2023-04-13T00:53:50.632Z,39.03
2023-04-13T00:56:23.923Z,36.35
2023-04-13T00:58:53.379Z,36.50
2023-04-13T01:01:22.721Z,37.88
2023-04-13T01:03:54.532Z,36.58
2023-04-13T01:06:42.916Z,44.90
2023-04-13T01:09:20.369Z,37.03
2023-04-13T01:12:20.170Z,41.17
2023-04-13T01:15:14.387Z,41.63
2023-04-13T01:17:53.233Z,36.63
2023-04-13T01:20:23.877Z,37.65
2023-04-13T01:23:10.279Z,44.17
2023-04-13T01:26:08.067Z,35.83
2023-04-13T01:28:39.948Z,33.35
2023-04-13T01:31:12.662Z,36.75
2023-04-13T01:33:43.189Z,32.67
2023-04-13T01:36:14.084Z,33.53
2023-04-13T01:38:43.338Z,33.75
2023-04-13T01:41:16.530Z,32.05
2023-04-13T01:43:46.372Z,33.50
2023-04-13T01:46:16.249Z,32.53
2023-04-13T01:48:57.658Z,31.60
2023-04-13T01:51:35.326Z,33.55
2023-04-13T01:54:17.244Z,32.83
2023-04-13T01:56:46.888Z,32.30
2023-04-13T01:59:20.333Z,32.40
2023-04-13T02:01:49.896Z,32.88
2023-04-13T02:04:19.499Z,30.90
2023-04-13T02:06:49.325Z,31.98
2023-04-13T02:09:18.975Z,30.92
2023-04-13T02:11:49.027Z,31.67
2023-04-13T02:14:18.207Z,31.88
2023-04-13T02:16:47.593Z,30.67
2023-04-13T02:19:16.938Z,30.77
2023-04-13T02:21:47.104Z,31.35
2023-04-13T02:24:16.345Z,32.13
2023-04-13T02:26:45.513Z,30.63
2023-04-13T02:29:14.649Z,30.30
2023-04-13T02:31:46.280Z,29.95
2023-04-13T02:34:15.568Z,30.00
2023-04-13T02:36:46.041Z,29.90
2023-04-13T02:39:15.357Z,29.90
2023-04-13T02:41:44.850Z,30.95
2023-04-13T02:44:14.020Z,30.98
2023-04-13T02:46:43.216Z,30.70
2023-04-13T02:49:12.634Z,29.95
2023-04-13T02:51:47.462Z,30.83
2023-04-13T02:54:19.722Z,29.33
2023-04-13T02:56:51.706Z,30.25
2023-04-13T02:59:21.250Z,28.58
2023-04-13T03:01:51.205Z,29.38
2023-04-13T03:04:23.482Z,28.65
2023-04-13T03:06:56.217Z,29.95
2023-04-13T03:09:29.321Z,28.30
2023-04-13T03:11:58.837Z,28.80
2023-04-13T03:14:30.878Z,28.48
2023-04-13T03:17:00.885Z,29.23
2023-04-13T03:19:31.116Z,30.00
2023-04-13T03:22:06.364Z,29.30
2023-04-13T03:24:58.977Z,28.88
2023-04-13T03:27:36.064Z,30.60
2023-04-13T03:30:12.892Z,28.70
2023-04-13T03:32:45.062Z,26.90
2023-04-13T03:35:14.376Z,26.63
2023-04-13T03:37:51.638Z,25.52
2023-04-13T03:40:21.936Z,27.00
2023-04-13T03:42:53.864Z,26.00
2023-04-13T03:48:10.703Z,28.63
2023-04-13T03:50:44.546Z,28.23
2023-04-13T03:53:19.735Z,27.70
2023-04-13T03:55:51.976Z,26.52
2023-04-13T03:58:24.367Z,26.20
2023-04-13T04:00:57.022Z,26.15
2023-04-13T04:03:32.071Z,25.00
2023-04-13T04:06:04.551Z,25.85
2023-04-13T04:08:34.568Z,25.40
2023-04-13T04:11:07.858Z,25.58
2023-04-13T04:13:39.866Z,25.20
2023-04-13T04:16:12.845Z,26.05
2023-04-13T04:18:49.478Z,26.02
2023-04-13T04:21:22.616Z,25.75
2023-04-13T04:23:53.172Z,24.92
2023-04-13T04:26:26.586Z,27.10
2023-04-13T04:29:02.886Z,25.65
2023-04-13T04:31:37.630Z,26.02
2023-04-13T04:34:06.861Z,24.70
2023-04-13T04:36:37.314Z,26.00
2023-04-13T04:39:07.247Z,26.38
2023-04-13T04:41:38.411Z,24.27
2023-04-13T04:44:08.711Z,24.63
2023-04-13T04:46:39.522Z,25.08
2023-04-13T04:49:08.776Z,24.55
2023-04-13T04:51:38.863Z,25.23
2023-04-13T04:54:09.099Z,25.52
2023-04-13T04:56:38.383Z,25.70
2023-04-13T04:59:07.643Z,24.45
2023-04-13T05:01:37.157Z,25.60
2023-04-13T05:04:07.364Z,25.38
2023-04-13T05:06:36.762Z,24.52
2023-04-13T05:09:06.940Z,24.77
2023-04-13T05:11:36.177Z,23.88
2023-04-13T05:14:05.434Z,25.85
2023-04-13T05:16:35.096Z,24.00
2023-04-13T05:19:06.323Z,24.70
2023-04-13T05:21:35.897Z,24.35
2023-04-13T05:24:05.495Z,23.92
2023-04-13T05:26:35.247Z,24.00
2023-04-13T05:29:06.272Z,26.60
2023-04-13T05:31:35.590Z,25.30
2023-04-13T05:34:04.885Z,24.13
2023-04-13T05:36:34.470Z,25.23
2023-04-13T05:39:04.110Z,25.88
2023-04-13T05:41:34.760Z,24.63
2023-04-13T05:44:04.009Z,24.02
2023-04-13T05:46:33.291Z,24.40
2023-04-13T05:49:02.777Z,24.40
2023-04-13T05:51:33.800Z,24.40
2023-04-13T05:54:04.143Z,23.23
2023-04-13T05:56:35.248Z,22.67
2023-04-13T05:59:05.372Z,23.20
2023-04-13T06:01:35.935Z,24.00
2023-04-13T06:04:07.102Z,22.85
2023-04-13T06:06:37.032Z,22.60
2023-04-13T06:09:06.907Z,22.05
2023-04-13T06:11:36.600Z,23.75
2023-04-13T06:14:05.949Z,21.70
2023-04-13T06:16:35.309Z,22.08
2023-04-13T06:19:04.702Z,22.73
2023-04-13T06:21:34.514Z,22.15
2023-04-13T06:24:03.764Z,22.48
2023-04-13T06:26:34.302Z,22.50
2023-04-13T06:29:04.175Z,25.48
2023-04-13T06:31:33.828Z,23.17
2023-04-13T06:34:03.463Z,23.90
2023-04-13T06:36:33.768Z,22.98
2023-04-13T06:39:03.244Z,21.90
2023-04-13T06:41:33.175Z,23.80
2023-04-13T06:44:02.409Z,22.60
2023-04-13T06:46:31.991Z,21.38
2023-04-13T06:49:01.790Z,22.45
2023-04-13T06:51:31.218Z,23.20
2023-04-13T06:54:00.920Z,22.40
2023-04-13T06:56:30.232Z,22.58
2023-04-13T06:59:02.909Z,22.08
2023-04-13T07:01:33.309Z,22.27
2023-04-13T07:04:03.731Z,21.58
2023-04-13T07:06:33.343Z,22.60
2023-04-13T07:09:03.962Z,23.00
2023-04-13T07:11:33.378Z,24.45
2023-04-13T07:14:02.915Z,22.52
2023-04-13T07:16:32.392Z,22.30
2023-04-13T07:19:02.698Z,20.98
2023-04-13T07:21:34.125Z,21.50
2023-04-13T07:24:03.440Z,21.63
2023-04-13T07:26:32.724Z,22.70
2023-04-13T07:29:02.251Z,22.15
2023-04-13T07:31:31.777Z,21.95
2023-04-13T07:34:01.022Z,21.05
2023-04-13T07:36:30.312Z,20.73
2023-04-13T07:38:59.827Z,22.15
2023-04-13T07:41:29.514Z,21.83
2023-04-13T07:43:58.763Z,21.65
2023-04-13T07:46:28.404Z,22.13
2023-04-13T07:48:58.468Z,22.67
2023-04-13T07:51:27.866Z,22.17
2023-04-13T07:53:57.384Z,22.60
2023-04-13T07:56:27.252Z,22.83
2023-04-13T07:58:56.598Z,22.48
2023-04-13T08:01:26.676Z,22.42
2023-04-13T08:03:56.507Z,21.48
2023-04-13T08:06:25.984Z,23.27
2023-04-13T08:08:55.747Z,22.63
2023-04-13T08:11:25.015Z,21.65
2023-04-13T08:13:54.261Z,22.70
2023-04-13T08:16:23.614Z,23.55
2023-04-13T08:18:52.912Z,23.02
2023-04-13T08:21:22.181Z,23.05
2023-04-13T08:23:51.471Z,22.48
2023-04-13T08:26:23.156Z,22.67
2023-04-13T08:28:56.161Z,23.17
2023-04-13T08:31:25.476Z,22.42
2023-04-13T08:33:56.582Z,22.15
2023-04-13T08:36:28.499Z,21.88
2023-04-13T08:38:57.952Z,21.50
2023-04-13T08:41:29.246Z,22.83
2023-04-13T08:43:59.012Z,22.80
2023-04-13T08:46:28.970Z,22.60
2023-04-13T08:49:01.323Z,23.80
2023-04-13T08:51:35.463Z,23.80
2023-04-13T08:54:04.775Z,22.42
2023-04-13T08:56:45.316Z,22.17
2023-04-13T08:59:18.327Z,22.15
2023-04-13T09:01:50.017Z,21.92
2023-04-13T09:04:24.944Z,22.20
2023-04-13T09:06:54.606Z,22.60
2023-04-13T09:09:25.503Z,21.58
2023-04-13T09:11:54.790Z,22.05
2023-04-13T09:14:24.956Z,22.25
2023-04-13T09:16:54.601Z,22.92
2023-04-13T09:19:34.551Z,22.48
2023-04-13T09:22:15.436Z,23.60
2023-04-13T09:24:44.955Z,22.70
2023-04-13T09:27:24.866Z,23.67
2023-04-13T09:29:57.978Z,21.85
2023-04-13T09:32:29.320Z,23.08
2023-04-13T09:35:09.324Z,22.58
2023-04-13T09:37:45.260Z,23.05
2023-04-13T09:40:17.504Z,23.55
2023-04-13T09:43:03.909Z,22.23
2023-04-13T09:45:42.307Z,23.13
2023-04-13T09:48:23.472Z,23.73
2023-04-13T09:51:03.872Z,22.42
2023-04-13T09:53:54.434Z,23.70
2023-04-13T09:56:25.659Z,22.73
2023-04-13T09:58:55.302Z,23.25
2023-04-13T10:01:26.261Z,23.50
2023-04-13T10:03:56.376Z,24.65
2023-04-13T10:06:25.890Z,24.10
2023-04-13T10:08:55.122Z,23.42
2023-04-13T10:11:25.432Z,23.45
2023-04-13T10:14:03.763Z,23.95
2023-04-13T10:16:51.204Z,24.70
2023-04-13T10:21:56.080Z,22.85
2023-04-13T10:24:26.568Z,25.17
2023-04-13T10:26:59.578Z,23.77
2023-04-13T10:29:33.844Z,24.05
2023-04-13T10:32:06.236Z,23.35
2023-04-13T10:34:39.213Z,24.50
2023-04-13T10:37:30.295Z,25.73
2023-04-13T10:40:11.281Z,23.08
2023-04-13T10:42:52.534Z,24.80
2023-04-13T10:45:35.801Z,25.58
2023-04-13T10:48:05.627Z,23.63
2023-04-13T10:50:34.937Z,24.35
2023-04-13T10:53:06.240Z,23.92
2023-04-13T10:55:37.003Z,24.90
2023-04-13T10:58:20.208Z,24.67
2023-04-13T11:00:51.032Z,23.95
2023-04-13T11:03:20.870Z,25.13
2023-04-13T11:06:00.361Z,26.98
2023-04-13T11:08:29.783Z,25.67
2023-04-13T11:10:59.744Z,24.73
2023-04-13T11:13:32.132Z,24.42
2023-04-13T11:16:06.289Z,25.52
2023-04-13T11:18:35.698Z,24.70
2023-04-13T11:21:08.610Z,25.58
2023-04-13T11:44:58.167Z,27.75
2023-04-13T11:47:28.208Z,28.77
2023-04-13T11:49:57.717Z,29.27
2023-04-13T11:52:28.034Z,28.40
2023-04-13T11:55:00.660Z,27.55
2023-04-13T11:57:37.709Z,27.13
2023-04-13T12:00:17.131Z,27.17
2023-04-13T12:03:01.045Z,26.23
2023-04-13T12:05:34.749Z,26.98
2023-04-13T12:08:04.984Z,26.02
2023-04-13T12:10:46.713Z,26.27
2023-04-13T12:13:35.991Z,26.60
2023-04-13T12:16:09.583Z,27.75
2023-04-13T12:18:47.783Z,28.10
2023-04-13T12:21:20.970Z,28.70
2023-04-13T12:23:59.940Z,27.33
2023-04-13T12:27:10.070Z,27.85
2023-04-13T12:29:28.131Z,29.33
2023-04-13T12:32:04.836Z,30.85
2023-04-13T12:34:34.508Z,29.35
2023-04-13T12:37:03.716Z,29.33
2023-04-13T12:39:33.020Z,29.08
2023-04-13T12:42:02.326Z,28.55
2023-04-13T12:44:33.782Z,27.92
2023-04-13T12:47:03.970Z,26.17
2023-04-13T12:49:33.308Z,26.70
2023-04-13T12:52:02.626Z,25.20
2023-04-13T12:54:31.851Z,25.50
2023-04-13T12:57:01.375Z,24.52
2023-04-13T12:59:30.750Z,24.60
2023-04-13T13:02:00.066Z,26.30
2023-04-13T13:04:31.615Z,24.88
2023-04-13T13:07:01.459Z,24.95
2023-04-13T13:09:30.702Z,24.70
2023-04-13T13:12:00.059Z,25.92
2023-04-13T13:14:29.695Z,26.05
2023-04-13T13:16:59.039Z,23.17
2023-04-13T13:19:28.504Z,23.95
2023-04-13T13:21:57.956Z,24.55
2023-04-13T13:24:27.361Z,24.83
2023-04-13T13:29:31.832Z,24.15
2023-04-13T13:32:02.303Z,24.05
2023-04-13T13:34:31.695Z,23.38
2023-04-13T13:37:00.916Z,24.92
2023-04-13T13:39:30.205Z,24.55
2023-04-13T13:42:00.006Z,23.77
2023-04-13T13:44:29.723Z,24.33
2023-04-13T13:46:58.929Z,24.00
2023-04-13T13:49:29.286Z,23.77
2023-04-13T13:51:58.558Z,23.95
2023-04-13T13:54:28.093Z,25.63
2023-04-13T13:56:57.364Z,23.33
2023-04-13T13:59:26.728Z,24.33
2023-04-13T14:01:56.146Z,23.70
2023-04-13T14:04:25.631Z,23.77
2023-04-13T14:06:54.972Z,24.13
2023-04-13T14:09:24.481Z,24.23
2023-04-13T14:11:53.828Z,24.25
2023-04-13T14:14:23.078Z,23.73
2023-04-13T14:16:52.360Z,24.23
2023-04-13T14:19:22.992Z,23.52
2023-04-13T14:21:57.427Z,24.02
2023-04-13T14:24:27.112Z,24.85
2023-04-13T14:26:56.420Z,24.55
2023-04-13T14:29:25.649Z,24.65
2023-04-13T14:31:55.031Z,24.08
2023-04-13T14:34:24.276Z,25.30
2023-04-13T14:36:54.441Z,23.55
2023-04-13T14:39:26.838Z,24.75
2023-04-13T14:41:56.673Z,24.35
2023-04-13T14:44:26.504Z,24.50
2023-04-13T14:46:56.151Z,24.92
2023-04-13T14:49:25.581Z,24.75
2023-04-13T14:51:54.816Z,24.75
2023-04-13T14:54:24.135Z,25.77
2023-04-13T14:56:53.392Z,24.88
2023-04-13T14:59:22.912Z,23.73
2023-04-13T15:01:52.400Z,24.27
2023-04-13T15:04:21.846Z,25.58
2023-04-13T15:06:55.057Z,23.98
2023-04-13T15:09:24.389Z,24.73
2023-04-13T15:11:53.594Z,23.80
2023-04-13T15:14:23.522Z,25.30
2023-04-13T15:16:52.928Z,25.05
2023-04-13T15:19:22.207Z,26.92
2023-04-13T15:21:51.665Z,25.60
2023-04-13T15:24:20.892Z,25.67
2023-04-13T15:26:51.701Z,25.23
2023-04-13T15:29:21.438Z,25.20
2023-04-13T15:31:50.809Z,25.10
2023-04-13T15:34:20.171Z,26.52
2023-04-13T15:36:49.974Z,26.60
2023-04-13T15:39:19.197Z,26.20
2023-04-13T15:41:48.546Z,25.75
2023-04-13T15:44:18.234Z,26.00
2023-04-13T15:46:48.964Z,24.98
2023-04-13T15:49:18.162Z,25.95
2023-04-13T15:51:47.810Z,26.15
2023-04-13T15:54:17.126Z,25.75
2023-04-13T15:56:46.964Z,26.77
2023-04-13T15:59:16.263Z,25.42
2023-04-13T16:01:50.777Z,26.55
2023-04-13T16:04:20.182Z,26.13
2023-04-13T16:07:05.008Z,27.10
2023-04-13T16:09:40.145Z,27.20
2023-04-13T16:12:11.800Z,26.40
2023-04-13T16:14:46.393Z,26.17
2023-04-13T16:17:16.489Z,26.50
2023-04-13T16:19:47.628Z,27.95
2023-04-13T16:22:16.863Z,28.90
2023-04-13T16:24:46.125Z,28.50
2023-04-13T16:27:16.481Z,26.98
2023-04-13T16:29:46.227Z,25.80
2023-04-13T16:32:15.565Z,28.80
2023-04-13T16:34:44.816Z,27.15
2023-04-13T16:37:14.046Z,27.80
2023-04-13T16:39:45.320Z,25.98
2023-04-13T16:42:17.775Z,27.38
2023-04-13T16:44:47.096Z,27.27
2023-04-13T16:47:16.310Z,27.27
2023-04-13T16:49:45.544Z,26.90
2023-04-13T16:52:14.752Z,26.27
2023-04-13T16:54:47.285Z,27.23
2023-04-13T16:57:16.468Z,25.27
2023-04-13T16:59:46.560Z,27.08
2023-04-13T17:02:28.332Z,26.33
2023-04-13T17:05:00.157Z,26.60
2023-04-13T17:07:29.505Z,26.75
2023-04-13T17:09:58.713Z,26.30
2023-04-13T17:12:28.536Z,27.25
2023-04-13T17:14:58.435Z,26.80
2023-04-13T17:17:28.016Z,26.60
2023-04-13T17:19:57.367Z,27.67
2023-04-13T17:22:26.677Z,26.30
2023-04-13T17:24:56.471Z,26.48
2023-04-13T17:27:25.707Z,26.27
2023-04-13T17:29:54.939Z,26.98
2023-04-13T17:32:24.283Z,27.60
2023-04-13T17:34:53.492Z,26.35
2023-04-13T17:37:23.390Z,27.60
2023-04-13T17:39:52.675Z,25.58
2023-04-13T17:42:21.905Z,26.65
2023-04-13T17:44:51.240Z,26.80
2023-04-13T17:47:20.383Z,26.67
2023-04-13T17:49:49.540Z,26.65
2023-04-13T17:52:18.778Z,26.20
2023-04-13T17:54:48.003Z,26.60
2023-04-13T17:57:17.209Z,27.50
2023-04-13T17:59:49.660Z,27.77
2023-04-13T18:02:19.436Z,26.90
2023-04-13T18:04:49.363Z,25.50
2023-04-13T18:07:18.649Z,26.42
2023-04-13T18:09:47.819Z,26.45
2023-04-13T18:12:17.506Z,27.02
2023-04-13T18:14:46.864Z,26.48
2023-04-13T18:17:16.249Z,26.45
2023-04-13T18:19:45.479Z,27.35
2023-04-13T18:22:15.238Z,27.27
2023-04-13T18:24:44.520Z,26.58
2023-04-13T18:27:14.256Z,27.52
2023-04-13T18:29:43.423Z,27.20
2023-04-13T18:32:12.676Z,26.08
2023-04-13T18:34:43.261Z,27.08
2023-04-13T18:37:12.818Z,26.30
2023-04-13T18:39:42.346Z,27.35
2023-04-13T18:42:11.765Z,25.95
2023-04-13T18:44:41.539Z,26.70
2023-04-13T18:47:10.738Z,26.02
2023-04-13T18:49:39.912Z,26.58
2023-04-13T18:52:09.134Z,26.38
2023-04-13T18:54:38.360Z,28.55
2023-04-13T18:57:08.740Z,27.05
2023-04-13T18:59:38.054Z,26.70
2023-04-13T19:02:07.467Z,27.17
2023-04-13T19:04:39.137Z,26.95
2023-04-13T19:07:09.698Z,26.88
2023-04-13T19:09:39.817Z,28.05
2023-04-13T19:12:09.774Z,26.77
2023-04-13T19:14:38.991Z,26.13
2023-04-13T19:17:08.266Z,27.27
2023-04-13T19:19:37.890Z,26.63
2023-04-13T19:22:07.153Z,26.52
2023-04-13T19:24:36.374Z,27.08
2023-04-13T19:27:05.628Z,27.88
2023-04-13T19:29:35.714Z,26.95
2023-04-13T19:32:05.187Z,27.13
2023-04-13T19:34:34.862Z,25.92
2023-04-13T19:37:04.393Z,27.60
2023-04-13T19:39:34.622Z,26.88
2023-04-13T19:42:03.808Z,27.38
2023-04-13T19:44:33.374Z,27.27
2023-04-13T19:47:04.321Z,27.67
2023-04-13T19:49:34.292Z,26.13
2023-04-13T19:52:04.923Z,27.02
2023-04-13T19:54:34.200Z,28.63
2023-04-13T19:57:03.531Z,29.25
2023-04-13T19:59:32.868Z,27.42
2023-04-13T20:02:02.241Z,28.10
2023-04-13T20:04:32.264Z,27.17
2023-04-13T20:07:02.326Z,28.98
2023-04-13T20:09:31.952Z,29.48
2023-04-13T20:12:01.801Z,29.23
2023-04-13T20:14:31.006Z,29.25
2023-04-13T20:17:00.266Z,28.30
2023-04-13T20:19:29.578Z,28.67
2023-04-13T20:22:03.959Z,30.55
2023-04-13T20:24:33.397Z,29.13
2023-04-13T20:27:02.593Z,28.70
2023-04-13T20:29:32.235Z,28.95
2023-04-13T20:32:02.425Z,29.25
2023-04-13T20:34:31.886Z,30.25
2023-04-13T20:37:01.109Z,29.77
2023-04-13T20:39:31.609Z,30.13
2023-04-13T20:42:05.665Z,30.25
2023-04-13T20:44:38.911Z,29.83
2023-04-13T20:47:15.832Z,31.35
2023-04-13T20:49:47.812Z,32.00
2023-04-13T20:52:19.064Z,31.13
2023-04-13T20:54:48.441Z,30.80
2023-04-13T20:57:18.606Z,29.05
2023-04-13T20:59:49.080Z,30.27
2023-04-13T21:02:18.589Z,30.65
2023-04-13T21:04:48.635Z,29.45
2023-04-13T21:07:17.919Z,30.45
2023-04-13T21:09:47.280Z,29.85
2023-04-13T21:12:17.982Z,29.67
2023-04-13T21:14:47.231Z,30.48
2023-04-13T21:17:16.542Z,31.25
2023-04-13T21:19:45.985Z,30.00
2023-04-13T21:22:16.848Z,31.23
2023-04-13T21:24:46.644Z,30.80
2023-04-13T21:27:16.079Z,29.77
2023-04-13T21:29:45.548Z,31.23
2023-04-13T21:32:14.896Z,31.05
2023-04-13T21:34:44.389Z,31.38
2023-04-13T21:37:13.775Z,31.63
2023-04-13T21:39:43.111Z,30.27
2023-04-13T21:42:12.453Z,29.35
2023-04-13T21:44:41.912Z,30.40
2023-04-13T21:47:11.169Z,31.15
2023-04-13T21:49:40.521Z,30.35
2023-04-13T21:52:10.251Z,30.50
2023-04-13T21:54:39.580Z,30.42
2023-04-13T21:57:10.768Z,29.85
2023-04-13T21:59:40.183Z,30.50
2023-04-13T22:02:09.771Z,29.85
2023-04-13T22:04:39.268Z,29.75
2023-04-13T22:07:08.592Z,30.10
2023-04-13T22:09:37.860Z,31.30
2023-04-13T22:12:07.362Z,30.67
2023-04-13T22:14:36.634Z,32.00
2023-04-13T22:17:05.984Z,30.33
2023-04-13T22:19:35.345Z,31.27
2023-04-13T22:22:04.697Z,30.85
2023-04-13T22:24:37.023Z,32.83
2023-04-13T22:27:07.011Z,30.65
2023-04-13T22:29:36.302Z,30.13
2023-04-13T22:32:05.593Z,31.05
2023-04-13T22:34:35.734Z,31.80
2023-04-13T22:37:05.993Z,30.58
2023-04-13T22:39:35.791Z,31.60
2023-04-13T22:42:05.160Z,31.15
2023-04-13T22:44:35.988Z,31.35
2023-04-13T22:47:05.525Z,30.17
2023-04-13T22:49:35.004Z,32.30
2023-04-13T22:52:04.433Z,32.58
2023-04-13T22:54:33.911Z,32.63
2023-04-13T22:57:05.141Z,33.20
2023-04-13T22:59:34.805Z,31.63
2023-04-13T23:02:04.852Z,32.58
2023-04-13T23:04:34.431Z,33.70
2023-04-13T23:07:03.864Z,32.03
2023-04-13T23:09:33.213Z,31.90
2023-04-13T23:12:02.738Z,31.95
2023-04-13T23:14:32.039Z,33.17
2023-04-13T23:17:01.499Z,32.50
2023-04-13T23:19:30.830Z,32.40
2023-04-13T23:22:00.248Z,32.03
2023-04-13T23:24:32.747Z,33.65
2023-04-13T23:27:02.058Z,32.35
2023-04-13T23:29:31.403Z,34.15
2023-04-13T23:32:00.937Z,33.55
2023-04-13T23:34:30.356Z,34.60
2023-04-13T23:36:59.611Z,32.40
2023-04-13T23:39:28.851Z,34.70
2023-04-13T23:41:58.129Z,33.25
2023-04-13T23:44:28.273Z,33.75
2023-04-13T23:46:58.095Z,33.30
2023-04-13T23:49:27.458Z,33.70
2023-04-13T23:51:57.173Z,33.35
2023-04-13T23:54:26.703Z,31.80
2023-04-13T23:56:56.041Z,32.90
2023-04-13T23:59:25.536Z,32.75
